Time;durP1;ratioP1;P1;durP2;ratioP2;P2;SDS_P1;SDS_P2;PMS_P1;PMS_P2;Temp;Humidity;BMP_temperature;BMP_pressure;BME280_temperature;BME280_humidity;BME280_pressure;Samples;Min_cycle;Max_cycle;Signal;HPM_P1;HPM_P2
2023/07/25 00:01:47;;;;;;;2.43;1.50;;;;;;;16.97;75.46;99619.72;4956223;28;20216;-72
2023/07/25 00:04:13;;;;;;;2.63;1.70;;;;;;;16.94;75.70;99623.91;4955243;28;20209;-71
2023/07/25 00:06:40;;;;;;;5.10;1.77;;;;;;;16.92;75.74;99626.19;4956123;28;20211;-72
2023/07/25 00:09:06;;;;;;;1.97;1.63;;;;;;;16.91;75.94;99621.25;4956487;28;20667;-72
2023/07/25 00:11:32;;;;;;;2.27;1.87;;;;;;;16.89;75.30;99628.91;4953860;28;20209;-72
2023/07/25 00:14:00;;;;;;;2.70;1.53;;;;;;;16.88;75.66;99622.06;4955371;28;20217;-72
2023/07/25 00:16:26;;;;;;;2.57;1.60;;;;;;;16.87;75.07;99629.28;4955223;28;20223;-71
2023/07/25 00:18:53;;;;;;;2.63;1.93;;;;;;;16.81;76.39;99625.50;4957176;28;20232;-72
2023/07/25 00:21:19;;;;;;;2.00;1.53;;;;;;;16.83;76.29;99620.56;4956515;28;20216;-71
2023/07/25 00:23:46;;;;;;;3.83;1.87;;;;;;;16.82;76.01;99632.34;4949905;28;21303;-72
2023/07/25 00:26:12;;;;;;;4.13;1.90;;;;;;;16.79;75.67;99635.81;4956457;28;20830;-72
2023/07/25 00:28:38;;;;;;;2.70;2.03;;;;;;;16.78;76.17;99647.63;4956325;28;20726;-72
2023/07/25 00:31:09;;;;;;;3.90;1.90;;;;;;;16.76;75.67;99639.25;4957927;28;21999;-71
2023/07/25 00:33:36;;;;;;;1.87;1.40;;;;;;;16.73;75.58;99637.38;4955938;28;21311;-71
2023/07/25 00:36:02;;;;;;;3.80;1.87;;;;;;;16.72;75.77;99633.16;4955879;28;20207;-72
2023/07/25 00:38:28;;;;;;;4.10;2.10;;;;;;;16.69;76.67;99633.97;4969879;28;20235;-71
2023/07/25 00:40:55;;;;;;;2.77;1.50;;;;;;;16.68;76.72;99643.09;4955131;28;20807;-72
2023/07/25 00:43:21;;;;;;;3.00;1.90;;;;;;;16.67;76.60;99638.16;4971099;28;20303;-71
2023/07/25 00:45:48;;;;;;;3.27;2.03;;;;;;;16.67;76.76;99638.16;4960170;28;20208;-71
2023/07/25 00:48:16;;;;;;;3.13;1.87;;;;;;;16.67;76.23;99640.81;4969527;28;23317;-71
2023/07/25 00:50:42;;;;;;;3.23;1.57;;;;;;;16.66;75.99;99640.06;4956023;28;20209;-71
2023/07/25 00:53:10;;;;;;;2.63;1.67;;;;;;;16.65;76.07;99643.09;4955982;28;20259;-72
2023/07/25 00:55:36;;;;;;;2.83;1.67;;;;;;;16.64;76.27;99642.34;4970011;28;20220;-71
2023/07/25 00:58:02;;;;;;;1.83;1.57;;;;;;;16.62;76.12;99643.88;4958002;28;20204;-72
2023/07/25 01:00:29;;;;;;;2.80;2.00;;;;;;;16.62;76.39;99638.56;4955741;28;20948;-72
2023/07/25 01:02:55;;;;;;;3.30;2.23;;;;;;;16.59;76.22;99642.75;4955764;28;20220;-71
2023/07/25 01:05:25;;;;;;;3.37;1.90;;;;;;;16.57;76.52;99647.69;4952500;28;20212;-72
2023/07/25 01:07:51;;;;;;;3.00;2.00;;;;;;;16.57;76.58;99652.28;4948162;28;20224;-72
2023/07/25 01:10:18;;;;;;;3.50;1.90;;;;;;;16.53;77.59;99662.19;4966256;28;20240;-72
2023/07/25 01:12:44;;;;;;;3.33;2.00;;;;;;;16.53;77.31;99657.63;4943373;28;20598;-72
2023/07/25 01:15:11;;;;;;;3.67;2.00;;;;;;;16.53;76.43;99654.19;4946193;28;20327;-72
2023/07/25 01:17:37;;;;;;;4.87;2.07;;;;;;;16.52;77.10;99661.44;4954593;28;20713;-71
2023/07/25 01:20:07;;;;;;;5.73;2.00;;;;;;;16.50;77.46;99665.66;4952613;28;20622;-72
2023/07/25 01:22:37;;;;;;;2.83;2.23;;;;;;;16.49;77.65;99674.78;4952768;28;20216;-72
2023/07/25 01:25:07;;;;;;;4.77;2.40;;;;;;;16.48;78.03;99678.59;4956992;28;20261;-72
2023/07/25 01:27:34;;;;;;;3.60;2.13;;;;;;;16.51;77.55;99678.56;4955766;28;20819;-71
2023/07/25 01:30:00;;;;;;;3.40;2.20;;;;;;;16.50;77.19;99676.31;4942765;28;20239;-72
2023/07/25 01:32:26;;;;;;;3.83;2.13;;;;;;;16.49;77.50;99672.09;4968835;28;20238;-71
2023/07/25 01:34:53;;;;;;;2.97;2.10;;;;;;;16.48;77.37;99670.59;4968256;28;20217;-72
2023/07/25 01:37:20;;;;;;;4.63;2.30;;;;;;;16.45;77.34;99668.72;4956137;28;20217;-72
2023/07/25 01:39:48;;;;;;;3.50;2.27;;;;;;;16.45;77.44;99671.38;4969495;28;20971;-72
2023/07/25 01:42:15;;;;;;;4.27;2.10;;;;;;;16.42;78.02;99672.13;4951195;28;20227;-72
2023/07/25 01:44:42;;;;;;;3.63;2.10;;;;;;;16.42;77.81;99669.47;4954749;28;20213;-71
2023/07/25 01:47:08;;;;;;;3.10;2.30;;;;;;;16.39;78.41;99679.00;4952167;28;20220;-71
2023/07/25 01:49:35;;;;;;;3.73;2.20;;;;;;;16.40;77.33;99685.84;4982797;23;1033809;-74
2023/07/25 01:52:01;;;;;;;3.03;2.13;;;;;;;16.40;77.16;99672.50;5038234;28;20192;-74
2023/07/25 01:54:28;;;;;;;3.03;2.27;;;;;;;16.40;77.24;99688.50;5035874;28;20208;-74
2023/07/25 01:56:54;;;;;;;2.83;1.97;;;;;;;16.39;77.04;99683.56;5022045;28;20446;-74
2023/07/25 01:59:22;;;;;;;3.50;2.50;;;;;;;16.37;77.54;99685.81;5021636;28;20287;-74
2023/07/25 02:01:48;;;;;;;3.00;2.20;;;;;;;16.36;78.34;99684.31;5036797;28;20204;-74
2023/07/25 02:04:15;;;;;;;4.00;2.53;;;;;;;16.36;78.29;99684.31;5023786;28;20698;-74
2023/07/25 02:06:41;;;;;;;4.53;2.50;;;;;;;16.38;77.66;99685.44;5021290;28;20192;-74
2023/07/25 02:09:08;;;;;;;3.97;2.80;;;;;;;16.38;77.90;99685.44;5024165;28;20608;-74
2023/07/25 02:11:34;;;;;;;5.03;2.80;;;;;;;16.42;77.94;99690.78;5026530;28;20650;-74
2023/07/25 02:14:00;;;;;;;3.77;2.90;;;;;;;16.39;78.06;99683.56;5041422;28;20674;-74
2023/07/25 02:16:28;;;;;;;3.63;2.60;;;;;;;16.40;78.13;99693.09;5041192;28;20291;-74
2023/07/25 02:18:55;;;;;;;4.00;2.77;;;;;;;16.40;78.20;99699.16;5039376;28;20232;-74
2023/07/25 02:21:21;;;;;;;3.10;2.43;;;;;;;16.41;77.84;99698.00;5038333;28;20207;-74
2023/07/25 02:23:48;;;;;;;3.13;2.40;;;;;;;16.39;77.77;99694.97;5026682;28;20205;-74
2023/07/25 02:26:14;;;;;;;3.27;2.67;;;;;;;16.40;77.59;99703.75;5022130;28;20211;-74
2023/07/25 02:28:41;;;;;;;3.73;3.00;;;;;;;16.41;77.92;99707.94;5024194;28;20211;-74
2023/07/25 02:31:07;;;;;;;3.70;2.40;;;;;;;16.42;77.89;99710.22;5025909;28;20211;-74
2023/07/25 02:33:35;;;;;;;3.43;2.70;;;;;;;16.42;77.58;99709.44;5025338;28;20228;-74
2023/07/25 02:36:02;;;;;;;4.87;2.63;;;;;;;16.43;77.96;99709.06;5025002;28;20209;-74
2023/07/25 02:38:28;;;;;;;3.30;2.70;;;;;;;16.43;77.58;99719.72;5023072;28;20223;-74
2023/07/25 02:40:55;;;;;;;5.67;2.63;;;;;;;16.47;77.70;99720.47;5026305;28;20199;-74
2023/07/25 02:43:22;;;;;;;5.60;2.70;;;;;;;16.51;77.63;99709.81;5024250;28;20275;-74
2023/07/25 02:45:49;;;;;;;3.20;2.70;;;;;;;16.54;77.57;99709.03;5039261;28;20263;-74
2023/07/25 02:48:15;;;;;;;4.33;3.00;;;;;;;16.56;77.63;99710.16;5036862;28;20247;-74
2023/07/25 02:50:45;;;;;;;4.03;2.60;;;;;;;16.59;77.30;99713.94;5039767;28;20703;-74
2023/07/25 02:53:11;;;;;;;3.87;2.80;;;;;;;16.60;76.97;99710.13;5037807;28;20244;-74
2023/07/25 02:55:38;;;;;;;3.03;2.60;;;;;;;16.58;76.68;99704.44;5038928;28;20205;-74
2023/07/25 02:58:05;;;;;;;3.73;2.50;;;;;;;16.57;76.72;99705.59;5023031;28;20720;-74
2023/07/25 03:00:31;;;;;;;4.57;2.80;;;;;;;16.55;76.67;99705.97;5026402;28;20263;-75
2023/07/25 03:02:58;;;;;;;2.60;2.40;;;;;;;16.52;76.60;99709.44;5040067;28;20205;-74
2023/07/25 03:05:27;;;;;;;6.70;3.00;;;;;;;16.49;76.46;99704.09;5024660;28;20282;-74
2023/07/25 03:07:55;;;;;;;3.13;2.60;;;;;;;16.46;76.34;99705.59;5022450;28;20220;-74
2023/07/25 03:10:22;;;;;;;3.77;2.70;;;;;;;16.44;76.56;99707.91;5025649;28;20561;-74
2023/07/25 03:12:48;;;;;;;3.73;2.63;;;;;;;16.39;76.92;99696.88;5023419;28;20220;-74
2023/07/25 03:15:15;;;;;;;3.47;2.70;;;;;;;16.37;76.96;99699.91;5038916;28;20343;-74
2023/07/25 03:17:41;;;;;;;3.37;2.77;;;;;;;16.34;76.76;99689.25;5036736;28;20220;-74
2023/07/25 03:20:08;;;;;;;7.07;3.30;;;;;;;16.31;76.93;99690.78;5024960;28;20716;-74
2023/07/25 03:22:35;;;;;;;4.30;3.10;;;;;;;16.30;77.25;99693.84;5040317;28;20657;-74
2023/07/25 03:25:02;;;;;;;3.70;2.83;;;;;;;16.29;77.25;99702.97;5037834;28;20196;-74
2023/07/25 03:27:29;;;;;;;5.37;3.43;;;;;;;16.27;77.80;99698.03;5021685;28;20305;-74
2023/07/25 03:29:55;;;;;;;3.83;3.20;;;;;;;16.29;77.57;99708.28;5021302;28;20192;-74
2023/07/25 03:32:22;;;;;;;5.17;3.23;;;;;;;16.31;78.32;99706.00;5037302;28;20246;-74
2023/07/25 03:34:48;;;;;;;3.80;2.93;;;;;;;16.32;77.95;99702.19;5023537;28;20208;-74
2023/07/25 03:37:14;;;;;;;7.27;3.27;;;;;;;16.33;78.19;99706.38;5021065;28;20219;-74
2023/07/25 03:39:41;;;;;;;4.70;3.23;;;;;;;16.35;77.90;99701.44;5023412;28;20647;-74
2023/07/25 03:42:09;;;;;;;4.87;3.50;;;;;;;16.39;77.74;99712.88;5036663;28;20215;-74
2023/07/25 03:44:35;;;;;;;4.03;3.37;;;;;;;16.40;77.23;99711.75;5036468;28;20188;-74
2023/07/25 03:47:02;;;;;;;4.43;3.40;;;;;;;16.43;78.26;99714.38;5037670;28;20285;-74
2023/07/25 03:49:28;;;;;;;4.43;3.30;;;;;;;16.45;77.79;99706.03;5040202;28;20216;-74
2023/07/25 03:51:54;;;;;;;4.43;3.37;;;;;;;16.49;77.98;99712.06;5023295;28;20282;-74
2023/07/25 03:54:23;;;;;;;6.70;4.73;;;;;;;16.52;77.80;99720.09;5023943;28;20606;-74
2023/07/25 03:56:50;;;;;;;5.10;3.13;;;;;;;16.58;77.80;99718.53;5021960;28;20266;-74
2023/07/25 03:59:17;;;;;;;5.70;3.63;;;;;;;16.64;77.56;99713.56;5022265;28;20922;-74
2023/07/25 04:01:44;;;;;;;3.93;3.07;;;;;;;16.69;77.66;99715.81;5038003;28;20228;-74
2023/07/25 04:04:10;;;;;;;6.43;4.00;;;;;;;16.74;77.30;99715.44;5035864;28;20200;-74
2023/07/25 04:06:37;;;;;;;5.23;3.13;;;;;;;16.81;77.62;99715.41;5035935;28;20219;-74
2023/07/25 04:09:04;;;;;;;4.17;3.20;;;;;;;16.88;77.44;99726.78;5022615;28;20283;-74
2023/07/25 04:11:30;;;;;;;5.70;3.40;;;;;;;16.96;77.32;99730.19;5035030;28;20555;-74
2023/07/25 04:13:57;;;;;;;5.47;3.70;;;;;;;17.03;76.87;99732.84;5020818;28;20213;-74
2023/07/25 04:16:25;;;;;;;5.23;3.33;;;;;;;17.08;76.62;99733.19;5023052;28;20600;-74
2023/07/25 04:18:51;;;;;;;4.10;3.70;;;;;;;17.14;76.07;99746.88;5032606;28;20231;-74
2023/07/25 04:21:18;;;;;;;3.43;3.13;;;;;;;17.21;75.81;99754.84;5020762;28;20230;-74
2023/07/25 04:23:44;;;;;;;3.93;3.10;;;;;;;17.28;76.05;99749.50;5036220;28;20872;-74
2023/07/25 04:26:11;;;;;;;6.90;3.00;;;;;;;17.33;75.63;99749.81;5027596;28;20212;-74
2023/07/25 04:28:37;;;;;;;7.03;3.40;;;;;;;17.37;75.45;99747.91;5023129;28;20789;-74
2023/07/25 04:31:03;;;;;;;4.70;3.00;;;;;;;17.42;75.08;99749.41;5017241;28;20263;-74
2023/07/25 04:33:31;;;;;;;6.33;3.27;;;;;;;17.44;74.88;99747.88;5021574;28;20294;-74
2023/07/25 04:35:58;;;;;;;6.53;3.03;;;;;;;17.47;74.79;99749.00;5036005;28;20226;-74
2023/07/25 04:38:24;;;;;;;4.60;3.00;;;;;;;17.54;74.69;99748.97;5036590;28;20215;-74
2023/07/25 04:40:50;;;;;;;4.10;3.27;;;;;;;17.58;74.50;99747.03;5021199;28;20203;-74
2023/07/25 04:43:17;;;;;;;4.33;3.00;;;;;;;17.60;74.50;99745.50;5020293;28;20299;-74
2023/07/25 04:45:43;;;;;;;4.70;3.33;;;;;;;17.65;73.94;99739.00;5020710;28;20210;-74
2023/07/25 04:48:10;;;;;;;6.00;3.07;;;;;;;17.68;74.07;99730.19;5032459;28;20224;-74
2023/07/25 04:50:37;;;;;;;4.13;2.53;;;;;;;17.73;73.52;99733.19;5032975;28;20307;-74
2023/07/25 04:53:04;;;;;;;5.03;3.57;;;;;;;17.77;73.31;99741.19;5036641;28;20218;-74
2023/07/25 04:55:31;;;;;;;5.37;3.70;;;;;;;17.79;73.31;99739.63;5034065;28;20254;-74
2023/07/25 04:57:57;;;;;;;4.57;3.10;;;;;;;17.83;73.15;99735.03;5035008;28;20231;-74
2023/07/25 05:00:24;;;;;;;3.83;3.40;;;;;;;17.86;73.19;99730.81;5033722;28;20306;-74
2023/07/25 05:02:50;;;;;;;4.10;3.00;;;;;;;17.90;73.04;99729.63;5019351;28;20294;-74
2023/07/25 05:05:17;;;;;;;5.80;3.30;;;;;;;17.93;72.86;99742.22;5018991;28;20206;-74
2023/07/25 05:07:44;;;;;;;5.63;3.17;;;;;;;17.96;72.62;99756.69;5018840;28;20225;-74
2023/07/25 05:10:11;;;;;;;5.17;3.47;;;;;;;17.99;72.59;99753.22;5019471;28;20689;-74
2023/07/25 05:12:37;;;;;;;5.17;3.27;;;;;;;18.03;72.55;99768.06;5018547;28;20294;-74
2023/07/25 05:15:05;;;;;;;5.07;3.37;;;;;;;18.06;72.52;99769.19;5018398;28;20695;-74
2023/07/25 05:17:31;;;;;;;4.30;3.33;;;;;;;18.08;71.83;99783.69;5019362;28;20219;-74
2023/07/25 05:19:58;;;;;;;3.77;3.33;;;;;;;18.12;71.94;99805.78;5022053;28;20211;-74
2023/07/25 05:22:24;;;;;;;4.00;3.30;;;;;;;18.14;71.90;99802.72;5017663;28;20306;-74
2023/07/25 05:24:52;;;;;;;4.60;3.40;;;;;;;18.13;72.00;99801.19;5020277;28;20193;-74
2023/07/25 05:27:18;;;;;;;5.23;3.43;;;;;;;18.17;71.73;99801.94;5016294;28;20224;-74
2023/07/25 05:29:44;;;;;;;4.20;3.27;;;;;;;18.18;71.69;99793.53;5020101;28;20294;-74
2023/07/25 05:32:11;;;;;;;8.47;3.80;;;;;;;18.17;71.47;99792.00;5018247;28;20218;-75
2023/07/25 05:34:42;;;;;;;4.23;3.03;;;;;;;18.21;71.38;99792.72;5019109;28;20563;-74
2023/07/25 05:37:16;;;;;;;5.73;3.13;;;;;;;18.20;71.54;99798.47;5036194;28;20245;-74
2023/07/25 05:39:47;;;;;;;4.50;4.00;;;;;;;18.23;71.15;99803.03;5037632;28;20211;-74
2023/07/25 05:42:21;;;;;;;4.87;3.63;;;;;;;18.22;70.74;99798.84;5036967;28;20489;-74
2023/07/25 05:44:50;;;;;;;5.17;3.43;;;;;;;18.24;70.70;99799.19;5019566;28;20204;-74
2023/07/25 05:47:34;;;;;;;5.10;3.73;;;;;;;18.22;70.19;99809.53;5022048;28;20227;-74
2023/07/25 05:50:07;;;;;;;4.57;3.33;;;;;;;18.24;70.47;99817.91;5026624;28;20211;-74
2023/07/25 05:52:36;;;;;;;4.57;3.50;;;;;;;18.24;70.58;99821.34;5036959;28;20757;-74
2023/07/25 05:55:17;;;;;;;6.23;3.43;;;;;;;18.24;70.28;99818.66;5021384;28;20219;-74
2023/07/25 05:57:50;;;;;;;8.57;4.00;;;;;;;18.26;70.09;99816.34;5034800;28;20227;-74
2023/07/25 06:00:29;;;;;;;4.20;3.30;;;;;;;18.28;70.55;99830.09;5021706;28;20336;-74
2023/07/25 06:03:03;;;;;;;4.90;3.40;;;;;;;18.29;69.84;99834.28;5021037;28;20199;-74
2023/07/25 06:05:32;;;;;;;5.97;3.53;;;;;;;18.30;69.50;99840.38;5035935;28;20203;-74
2023/07/25 06:08:12;;;;;;;4.03;3.63;;;;;;;18.30;69.76;99829.69;5021483;28;20224;-74
2023/07/25 06:10:43;;;;;;;3.23;2.90;;;;;;;18.33;69.56;99831.59;5022798;28;20208;-74
2023/07/25 06:13:16;;;;;;;4.37;3.00;;;;;;;18.36;69.69;99842.25;5035494;28;20204;-74
2023/07/25 06:15:56;;;;;;;3.20;2.90;;;;;;;18.39;69.67;99846.84;5037628;28;20287;-74
2023/07/25 06:18:27;;;;;;;7.93;3.17;;;;;;;18.41;69.52;99831.16;5022204;28;20298;-74
2023/07/25 06:20:57;;;;;;;5.60;3.53;;;;;;;18.44;69.67;99838.41;5021568;28;20196;-74
2023/07/25 06:23:33;;;;;;;3.77;2.80;;;;;;;18.48;69.32;99844.44;5037099;28;20219;-74
2023/07/25 06:28:49;;;;;;;4.37;3.53;;;;;;;18.54;68.78;99842.88;5034459;28;20273;-74
2023/07/25 06:31:16;;;;;;;4.37;3.23;;;;;;;18.59;69.18;99845.13;5021325;28;20208;-74
2023/07/25 06:33:48;;;;;;;8.27;3.10;;;;;;;18.63;69.21;99853.88;5021444;28;20690;-74
2023/07/25 06:36:39;;;;;;;4.37;3.10;;;;;;;18.70;69.31;99847.69;5022415;28;20203;-74
2023/07/25 06:39:26;;;;;;;4.67;3.13;;;;;;;18.72;68.85;99853.41;5022125;28;20204;-74
2023/07/25 06:41:56;;;;;;;3.70;3.00;;;;;;;18.77;68.86;99856.41;5036949;28;20204;-74
2023/07/25 06:44:43;;;;;;;5.77;3.10;;;;;;;18.81;68.66;99849.13;5019935;28;20199;-74
2023/07/25 06:47:18;;;;;;;4.33;3.10;;;;;;;18.84;68.66;99855.59;5017684;28;20224;-74
2023/07/25 06:50:04;;;;;;;5.63;3.30;;;;;;;18.86;67.94;99859.38;5037756;28;20265;-73
2023/07/25 06:55:38;;;;;;;8.10;3.20;;;;;;;18.88;67.62;99851.72;5026915;28;20246;-74
2023/07/25 06:58:22;;;;;;;3.17;2.73;;;;;;;18.90;67.24;99852.09;5028090;28;20261;-74
2023/07/25 07:01:04;;;;;;;5.77;3.20;;;;;;;18.91;67.32;99839.44;5032065;28;20235;-74
2023/07/25 07:03:38;;;;;;;4.20;3.00;;;;;;;18.96;67.30;99839.03;5028734;28;20218;-74
2023/07/25 07:06:08;;;;;;;4.80;2.97;;;;;;;18.98;66.99;99836.69;5026318;28;20204;-74
2023/07/25 07:08:46;;;;;;;4.40;2.97;;;;;;;18.95;66.79;99840.19;5025548;28;20216;-74
2023/07/25 07:11:25;;;;;;;3.40;3.10;;;;;;;19.05;66.74;99828.59;5040547;28;20826;-74
2023/07/25 07:14:06;;;;;;;4.10;3.03;;;;;;;19.12;67.14;99823.16;5025942;28;20262;-73
2023/07/25 07:16:39;;;;;;;3.63;3.13;;;;;;;19.16;67.51;99819.31;5027029;28;20216;-74
2023/07/25 07:19:36;;;;;;;3.87;3.20;;;;;;;19.23;67.69;99810.44;5041376;28;20207;-74
2023/07/25 07:22:24;;;;;;;3.47;3.17;;;;;;;19.36;67.27;99814.84;5024458;28;20216;-74
2023/07/25 07:24:57;;;;;;;5.03;3.50;;;;;;;19.47;67.24;99815.50;5024228;28;20204;-73
2023/07/25 07:27:37;;;;;;;3.33;3.03;;;;;;;19.54;67.98;99807.34;5022102;28;20220;-74
2023/07/25 07:30:20;;;;;;;4.87;3.23;;;;;;;19.65;65.94;99804.53;5024685;28;21407;-73
2023/07/25 07:33:02;;;;;;;5.57;2.90;;;;;;;19.77;65.87;99799.38;5040318;28;20196;-73
2023/07/25 07:35:48;;;;;;;3.30;2.37;;;;;;;19.85;63.70;99786.63;5026703;28;20238;-74
2023/07/25 07:38:21;;;;;;;3.90;2.83;;;;;;;19.92;63.40;99786.53;5038551;28;20712;-74
2023/07/25 07:41:01;;;;;;;2.47;2.27;;;;;;;19.94;62.69;99784.97;5024348;28;20196;-74
2023/07/25 07:43:31;;;;;;;4.43;2.47;;;;;;;19.99;63.25;99781.81;5021616;28;20223;-74
2023/07/25 07:46:03;;;;;;;4.03;2.63;;;;;;;20.10;62.79;99769.03;5026347;28;20200;-73
2023/07/25 07:48:34;;;;;;;4.87;2.60;;;;;;;20.21;62.36;99764.25;5039133;28;20753;-73
2023/07/25 07:51:23;;;;;;;9.30;3.37;;;;;;;20.38;61.64;99757.06;5022805;28;20444;-74
2023/07/25 07:54:09;;;;;;;2.80;2.37;;;;;;;20.48;60.47;99758.81;5036462;28;20319;-74
2023/07/25 07:56:46;;;;;;;3.50;1.97;;;;;;;20.63;60.57;99757.34;5021941;28;20299;-74
2023/07/25 07:59:18;;;;;;;3.20;1.80;;;;;;;20.68;60.16;99754.97;5021297;28;20216;-74
2023/07/25 08:01:44;;;;;;;5.93;2.20;;;;;;;20.70;58.33;99762.59;5034262;28;20611;-74
2023/07/25 08:04:16;;;;;;;5.67;2.30;;;;;;;20.75;61.88;99756.75;5020060;28;20203;-74
2023/07/25 08:06:54;;;;;;;5.57;1.80;;;;;;;20.81;58.35;99753.16;5020258;28;20806;-74
2023/07/25 08:09:27;;;;;;;2.13;1.60;;;;;;;20.90;58.19;99750.72;5021533;28;20644;-74
2023/07/25 08:12:04;;;;;;;3.80;2.40;;;;;;;20.96;57.58;99756.38;5035304;28;20719;-74
2023/07/25 08:14:35;;;;;;;2.60;1.90;;;;;;;21.05;59.34;99764.63;5019777;28;20219;-74
2023/07/25 08:17:03;;;;;;;5.70;2.60;;;;;;;21.12;57.92;99765.22;5019322;28;20231;-74
2023/07/25 08:19:36;;;;;;;3.60;2.17;;;;;;;21.18;56.21;99765.50;5021501;28;20208;-74
2023/07/25 08:22:10;;;;;;;14.80;3.63;;;;;;;21.26;56.77;99766.88;5019083;28;20207;-74
2023/07/25 08:24:46;;;;;;;2.57;1.80;;;;;;;21.34;56.42;99774.34;5019877;28;20192;-74
2023/07/25 08:27:19;;;;;;;3.90;1.87;;;;;;;21.40;56.72;99774.59;5017504;28;20239;-74
2023/07/25 08:29:58;;;;;;;2.40;1.70;;;;;;;21.43;54.88;99774.50;5018960;28;20200;-74
2023/07/25 08:32:31;;;;;;;2.80;1.80;;;;;;;21.43;55.05;99790.63;5035807;28;20215;-74
2023/07/25 08:35:07;;;;;;;6.83;1.97;;;;;;;21.44;54.65;99786.78;5020159;28;20298;-74
2023/07/25 08:37:42;;;;;;;1.97;1.73;;;;;;;21.44;54.55;99800.22;5016276;28;20223;-74
2023/07/25 08:40:14;;;;;;;3.90;1.70;;;;;;;21.49;57.82;99798.97;5021373;28;20228;-74
2023/07/25 08:42:53;;;;;;;4.07;2.00;;;;;;;21.52;55.93;99808.88;5033349;28;20200;-74
2023/07/25 08:45:28;;;;;;;2.57;1.60;;;;;;;21.53;54.01;99816.50;5018332;28;20667;-74
2023/07/25 08:48:03;;;;;;;4.03;1.80;;;;;;;21.63;54.40;99817.47;5018388;28;20223;-74
2023/07/25 08:50:38;;;;;;;2.47;1.60;;;;;;;21.71;53.77;99813.47;5019369;28;20217;-74
2023/07/25 08:53:12;;;;;;;2.20;1.30;;;;;;;21.76;53.69;99813.75;5020361;28;20677;-74
2023/07/25 08:55:41;;;;;;;2.77;1.70;;;;;;;21.84;53.14;99808.97;5033816;28;20550;-74
2023/07/25 08:58:14;;;;;;;1.97;1.20;;;;;;;21.95;52.59;99810.22;5019979;28;20224;-74
2023/07/25 09:00:46;;;;;;;2.03;1.50;;;;;;;21.97;52.46;99807.09;5019836;28;20299;-74
2023/07/25 09:03:18;;;;;;;3.97;1.63;;;;;;;22.01;53.97;99815.84;5033069;28;20212;-74
2023/07/25 09:05:51;;;;;;;4.80;1.80;;;;;;;22.06;53.64;99815.34;5019501;28;20193;-74
2023/07/25 09:08:26;;;;;;;5.17;2.20;;;;;;;22.14;52.13;99808.63;5018521;28;20216;-74
2023/07/25 09:10:58;;;;;;;4.13;1.60;;;;;;;22.25;52.00;99809.13;5018918;28;20214;-74
2023/07/25 09:13:27;;;;;;;3.80;1.57;;;;;;;22.42;51.98;99811.38;5018368;28;20318;-74
2023/07/25 09:15:53;;;;;;;1.50;1.30;;;;;;;22.54;50.61;99810.72;5035018;28;20224;-74
2023/07/25 09:18:28;;;;;;;2.47;1.23;;;;;;;22.60;50.15;99819.78;5020432;28;20231;-74
2023/07/25 09:21:13;;;;;;;2.80;1.33;;;;;;;22.58;51.50;99812.56;5018166;28;20317;-74
2023/07/25 09:23:56;;;;;;;3.27;1.50;;;;;;;22.56;49.91;99810.28;5018596;28;20215;-74
2023/07/25 09:26:31;;;;;;;2.13;1.47;;;;;;;22.65;52.88;99818.50;5017468;28;20250;-74
2023/07/25 09:29:03;;;;;;;10.60;2.27;;;;;;;22.66;51.24;99815.38;5018204;28;20713;-74
2023/07/25 09:31:33;;;;;;;4.27;1.70;;;;;;;22.71;50.93;99824.88;5032426;28;20211;-74
2023/07/25 09:34:04;;;;;;;2.63;1.27;;;;;;;22.75;51.22;99817.44;5032676;28;20295;-74
2023/07/25 09:36:32;;;;;;;6.10;2.00;;;;;;;22.79;51.20;99816.19;5017251;28;20296;-74
2023/07/25 09:39:01;;;;;;;2.92;1.38;;;;;;;22.87;50.18;99817.50;5018087;28;20282;-74
2023/07/25 09:41:31;;;;;;;1.73;1.40;;;;;;;22.94;49.65;99824.63;5016909;28;20321;-74
2023/07/25 09:44:06;;;;;;;2.07;1.60;;;;;;;23.02;51.16;99828.66;5015669;28;20661;-74
2023/07/25 09:46:50;;;;;;;4.22;1.77;;;;;;;23.04;50.48;99829.75;5016345;28;20260;-74
2023/07/25 09:49:23;;;;;;;5.35;1.90;;;;;;;22.98;49.02;99822.59;5019247;28;20210;-74
2023/07/25 09:52:05;;;;;;;2.30;1.40;;;;;;;22.92;48.35;99816.25;5030892;28;20306;-74
2023/07/25 09:54:45;;;;;;;2.50;1.30;;;;;;;22.80;49.23;99816.94;5017545;28;20211;-74
2023/07/25 09:57:23;;;;;;;2.57;1.47;;;;;;;22.72;50.16;99815.63;5030329;28;20301;-74
2023/07/25 09:59:49;;;;;;;2.07;1.50;;;;;;;22.54;49.51;99818.00;5020813;28;20839;-74
2023/07/25 10:02:17;;;;;;;2.60;1.53;;;;;;;22.50;50.38;99815.41;5033835;28;20245;-74
2023/07/25 10:05:06;;;;;;;3.50;1.83;;;;;;;22.44;52.84;99811.72;5018163;28;20346;-74
2023/07/25 10:07:43;;;;;;;3.93;1.80;;;;;;;22.34;49.92;99812.72;5017067;28;20358;-74
2023/07/25 10:10:24;;;;;;;5.13;1.80;;;;;;;22.41;50.61;99807.16;5019626;28;21043;-73
2023/07/25 10:13:10;;;;;;;25.80;4.73;;;;;;;22.46;50.92;99814.00;5016484;28;20206;-74
2023/07/25 10:15:49;;;;;;;4.07;1.70;;;;;;;22.50;49.97;99814.69;5017783;28;20636;-73
2023/07/25 10:18:31;;;;;;;1.70;1.60;;;;;;;22.52;50.45;99805.00;5032022;28;20223;-73
2023/07/25 10:21:10;;;;;;;2.00;1.40;;;;;;;22.54;49.07;99808.00;5014925;28;21769;-74
2023/07/25 10:26:35;;;;;;;2.23;1.20;;;;;;;22.63;49.33;99799.31;5012470;28;20219;-73
2023/07/25 10:29:49;;;;;;;4.57;1.60;;;;;;;22.68;48.28;99793.44;5035017;28;20291;-73
2023/07/25 10:32:47;;;;;;;3.40;1.53;;;;;;;22.79;48.77;99805.44;5035154;28;20208;-73
2023/07/25 10:35:29;;;;;;;9.17;1.87;;;;;;;22.93;49.13;99798.91;5035364;28;20243;-73
2023/07/25 10:38:25;;;;;;;7.83;2.43;;;;;;;23.06;48.64;99800.44;5000733;28;20234;-74
2023/07/25 10:41:18;;;;;;;18.92;3.47;;;;;;;23.14;49.66;99788.28;5031815;28;20195;-73
2023/07/25 10:44:16;;;;;;;3.28;1.55;;;;;;;23.19;46.52;99795.13;5019804;28;20209;-73
2023/07/25 10:46:49;;;;;;;3.85;1.55;;;;;;;23.28;47.16;99793.28;5020124;28;20691;-73
2023/07/25 10:49:20;;;;;;;6.18;1.60;;;;;;;23.36;47.75;99791.13;5017579;28;20214;-73
2023/07/25 10:52:07;;;;;;;7.30;1.52;;;;;;;23.40;47.86;99797.19;5016846;28;20204;-73
2023/07/25 10:55:09;;;;;;;6.78;1.60;;;;;;;23.60;47.70;99803.88;5031619;28;20207;-73
2023/07/25 10:58:08;;;;;;;2.60;1.45;;;;;;;23.75;47.46;99796.84;5031388;28;20230;-73
2023/07/25 11:00:45;;;;;;;2.45;1.65;;;;;;;23.85;46.34;99801.16;5029038;28;20259;-73
2023/07/25 11:03:32;;;;;;;3.33;1.60;;;;;;;24.00;45.87;99790.72;5013996;28;20286;-73
2023/07/25 11:06:39;;;;;;;1.98;1.52;;;;;;;24.12;46.19;99779.16;5017502;28;20206;-74
2023/07/25 11:09:13;;;;;;;1.77;1.60;;;;;;;24.24;46.45;99788.41;5031967;28;20441;-73
2023/07/25 11:11:50;;;;;;;2.75;1.40;;;;;;;24.36;46.57;99782.97;5029738;28;20196;-74
2023/07/25 11:14:23;;;;;;;2.00;1.50;;;;;;;24.53;44.70;99781.63;5015038;28;20195;-73
2023/07/25 11:16:57;;;;;;;3.08;1.52;;;;;;;24.68;43.38;99779.97;5013796;28;20212;-74
2023/07/25 11:19:35;;;;;;;1.92;1.42;;;;;;;24.86;46.32;99784.75;5011463;28;20219;-73
2023/07/25 11:22:18;;;;;;;2.63;1.58;;;;;;;24.88;45.13;99782.34;5012971;28;20199;-74
2023/07/25 11:24:53;;;;;;;1.90;1.30;;;;;;;24.79;44.02;99768.78;5012399;28;20238;-73
2023/07/25 11:27:33;;;;;;;2.33;1.50;;;;;;;24.85;45.06;99765.06;5014244;28;20234;-74
2023/07/25 11:30:36;;;;;;;1.75;1.40;;;;;;;24.89;42.53;99765.69;5007283;28;20211;-73
2023/07/25 11:33:11;;;;;;;3.85;1.42;;;;;;;24.84;45.58;99757.41;5030701;28;20742;-73
2023/07/25 11:35:43;;;;;;;2.13;1.50;;;;;;;24.73;42.63;99762.44;5010094;28;20195;-73
2023/07/25 11:38:10;;;;;;;1.98;1.42;;;;;;;24.75;43.35;99768.91;4971197;23;20244;-73
2023/07/25 11:40:40;;;;;;;1.88;1.45;;;;;;;24.71;44.44;99756.72;4938260;28;20213;-73
2023/07/25 11:43:11;;;;;;;1.50;1.40;;;;;;;24.69;43.27;99748.28;4959188;28;20591;-73
2023/07/25 11:45:37;;;;;;;3.10;1.55;;;;;;;24.68;44.88;99752.19;4955637;28;20208;-73
2023/07/25 11:48:06;;;;;;;1.60;1.50;;;;;;;24.67;45.01;99756.84;4976970;28;20717;-74
2023/07/25 11:50:33;;;;;;;2.03;1.38;;;;;;;24.61;42.73;99744.34;4994250;23;20240;-72
2023/07/25 11:53:02;;;;;;;5.07;1.60;;;;;;;24.60;43.20;99746.28;4976143;28;20231;-72
2023/07/25 11:55:29;;;;;;;2.10;1.40;;;;;;;24.57;44.41;99739.06;4976312;28;20227;-72
2023/07/25 11:57:56;;;;;;;2.00;1.65;;;;;;;24.54;43.25;99748.03;4976375;28;21435;-72
2023/07/25 12:00:24;;;;;;;3.45;1.75;;;;;;;24.48;43.90;99735.53;4976004;28;20239;-72
2023/07/25 12:02:50;;;;;;;2.10;1.50;;;;;;;24.48;42.97;99736.28;4972504;28;20585;-72
2023/07/25 12:05:27;;;;;;;1.40;1.30;;;;;;;24.50;46.33;99736.59;4971818;28;20318;-72